Time;durP1;ratioP1;P1;durP2;ratioP2;P2;SDS_P1;SDS_P2;PMS_P1;PMS_P2;Temp;Humidity;BMP_temperature;BMP_pressure;BME280_temperature;BME280_humidity;BME280_pressure;Samples;Min_cycle;Max_cycle;Signal;HPM_P1;HPM_P2
2022/03/29 00:00:24;;;;;;;23.48;16.23;;;10.10;99.90;;;;;;5003057;28;20207;-54
2022/03/29 00:02:51;;;;;;;20.45;13.00;;;10.00;99.90;;;;;;5003169;28;20285;-55
2022/03/29 00:05:19;;;;;;;21.60;15.20;;;9.90;99.90;;;;;;5002948;28;20250;-52
2022/03/29 00:07:47;;;;;;;22.38;14.77;;;9.60;99.90;;;;;;5003147;28;20274;-48
2022/03/29 00:10:18;;;;;;;24.55;16.23;;;9.50;99.90;;;;;;5002931;28;20233;-50
2022/03/29 00:12:45;;;;;;;20.48;15.02;;;9.40;99.90;;;;;;5002592;28;20259;-56
2022/03/29 00:15:14;;;;;;;22.42;14.90;;;9.10;99.90;;;;;;5002890;28;20205;-56
2022/03/29 00:17:41;;;;;;;20.35;14.15;;;9.00;99.90;;;;;;5003249;28;20207;-53
2022/03/29 00:20:09;;;;;;;16.35;12.52;;;9.00;99.90;;;;;;5002504;28;20250;-53
2022/03/29 00:22:36;;;;;;;21.48;15.05;;;9.00;99.90;;;;;;5002573;28;20476;-55
2022/03/29 00:25:05;;;;;;;22.83;15.50;;;9.10;99.90;;;;;;5002761;28;20410;-56
2022/03/29 00:27:34;;;;;;;20.40;14.98;;;9.20;99.90;;;;;;5002413;28;20253;-56
2022/03/29 00:30:06;;;;;;;25.73;14.90;;;9.20;99.90;;;;;;5002567;28;20235;-53
2022/03/29 00:32:35;;;;;;;26.73;15.98;;;9.10;99.90;;;;;;5002400;28;20219;-54
2022/03/29 00:35:02;;;;;;;20.50;13.35;;;9.10;99.90;;;;;;5002286;28;20236;-53
2022/03/29 00:37:29;;;;;;;25.50;16.52;;;9.20;99.90;;;;;;5002219;28;20199;-53
2022/03/29 00:39:56;;;;;;;22.35;15.02;;;9.00;99.90;;;;;;5002296;28;20400;-54
2022/03/29 00:42:23;;;;;;;19.50;13.88;;;9.00;99.90;;;;;;5002373;28;20220;-54
2022/03/29 00:44:50;;;;;;;18.45;14.30;;;8.90;99.90;;;;;;5002056;28;20199;-52
2022/03/29 00:47:18;;;;;;;19.58;14.85;;;9.00;99.90;;;;;;5001999;28;20208;-51
2022/03/29 00:49:45;;;;;;;22.42;14.60;;;8.90;99.90;;;;;;5002336;28;20199;-52
2022/03/29 00:52:12;;;;;;;18.90;14.00;;;8.80;99.90;;;;;;5001772;28;20615;-56
2022/03/29 00:54:43;;;;;;;23.55;15.93;;;8.80;99.90;;;;;;5002377;28;20433;-50
2022/03/29 00:57:11;;;;;;;21.90;16.65;;;8.70;99.90;;;;;;5001779;28;20200;-51
2022/03/29 00:59:42;;;;;;;30.98;16.70;;;8.50;99.90;;;;;;5002493;28;20198;-55
2022/03/29 01:02:09;;;;;;;21.90;14.45;;;8.70;99.90;;;;;;5002361;28;20476;-56
2022/03/29 01:04:37;;;;;;;25.08;16.08;;;8.80;99.90;;;;;;5001822;28;20425;-54
2022/03/29 01:07:06;;;;;;;18.08;14.65;;;8.90;99.90;;;;;;5001509;28;20266;-53
2022/03/29 01:09:33;;;;;;;24.95;16.00;;;8.80;99.90;;;;;;5001963;28;20198;-56
2022/03/29 01:12:01;;;;;;;20.33;14.30;;;8.70;99.90;;;;;;5001526;28;20326;-55
2022/03/29 01:14:29;;;;;;;21.58;13.90;;;8.60;99.90;;;;;;5000646;28;20245;-56
2022/03/29 01:19:43;;;;;;;21.58;15.07;;;8.80;99.90;;;;;;5001787;28;20599;-56
2022/03/29 01:22:11;;;;;;;16.40;12.70;;;8.80;99.90;;;;;;5001432;28;20232;-55
2022/03/29 01:24:46;;;;;;;18.58;13.88;;;8.90;99.90;;;;;;5001063;28;20211;-54
2022/03/29 01:27:13;;;;;;;21.85;13.50;;;8.90;99.90;;;;;;5001486;28;20242;-53
2022/03/29 01:29:43;;;;;;;19.58;14.15;;;9.10;99.90;;;;;;5001048;28;20212;-53
2022/03/29 01:32:11;;;;;;;22.13;11.40;;;9.20;99.90;;;;;;4995680;28;20238;-56
2022/03/29 01:34:43;;;;;;;17.92;12.43;;;9.30;99.90;;;;;;5000671;28;20208;-55
2022/03/29 01:37:11;;;;;;;17.85;12.68;;;9.30;99.90;;;;;;5000835;28;20389;-53
2022/03/29 01:39:38;;;;;;;19.92;14.80;;;9.30;99.90;;;;;;5007665;28;20250;-54
2022/03/29 01:42:06;;;;;;;20.60;13.77;;;9.30;99.90;;;;;;5001078;28;20220;-55
2022/03/29 01:44:33;;;;;;;22.08;13.50;;;9.40;99.90;;;;;;5000954;28;20242;-51
2022/03/29 01:47:00;;;;;;;27.15;15.57;;;9.40;99.90;;;;;;5001191;28;20232;-56
2022/03/29 01:49:28;;;;;;;22.63;13.85;;;9.30;99.90;;;;;;5001006;28;20238;-49
2022/03/29 01:51:56;;;;;;;17.80;12.52;;;9.30;99.90;;;;;;5000858;28;20451;-54
2022/03/29 01:54:24;;;;;;;19.90;11.90;;;9.30;99.90;;;;;;5001080;28;20325;-53
2022/03/29 01:56:52;;;;;;;20.88;12.75;;;9.40;99.90;;;;;;5000759;28;20204;-49
2022/03/29 01:59:19;;;;;;;20.48;14.48;;;9.20;99.90;;;;;;5000901;28;20394;-54
2022/03/29 02:01:48;;;;;;;16.20;10.88;;;9.10;99.90;;;;;;5000715;28;20286;-56
2022/03/29 02:04:17;;;;;;;16.00;11.90;;;9.00;99.90;;;;;;5001087;28;20355;-58
2022/03/29 02:06:44;;;;;;;16.10;9.98;;;9.00;99.90;;;;;;5000636;28;20352;-52
2022/03/29 02:09:12;;;;;;;16.33;10.30;;;9.00;99.90;;;;;;5000246;28;20255;-54
2022/03/29 02:11:42;;;;;;;20.73;10.98;;;9.10;99.90;;;;;;5000162;28;20267;-52
2022/03/29 02:14:09;;;;;;;16.85;11.10;;;9.10;99.90;;;;;;5000425;28;20208;-55
2022/03/29 02:16:36;;;;;;;18.70;10.00;;;9.10;99.90;;;;;;5000544;28;20286;-55
2022/03/29 02:19:04;;;;;;;18.27;11.45;;;9.10;99.90;;;;;;5000564;28;20219;-53
2022/03/29 02:21:32;;;;;;;20.95;11.23;;;9.20;99.90;;;;;;5000224;28;20224;-55
2022/03/29 02:23:59;;;;;;;15.77;10.10;;;9.30;99.90;;;;;;5000085;28;20208;-54
2022/03/29 02:26:26;;;;;;;13.38;9.50;;;9.10;99.90;;;;;;5000462;28;20554;-51
2022/03/29 02:28:54;;;;;;;15.63;10.50;;;9.20;99.90;;;;;;5000477;28;20361;-50
2022/03/29 02:31:21;;;;;;;13.65;8.82;;;9.20;99.90;;;;;;5000528;28;20274;-54
2022/03/29 02:33:48;;;;;;;13.63;9.55;;;9.30;99.90;;;;;;5000222;28;20201;-55
2022/03/29 02:36:16;;;;;;;13.52;9.68;;;9.30;99.90;;;;;;5000250;28;20204;-56
2022/03/29 02:38:43;;;;;;;15.00;9.70;;;9.30;99.90;;;;;;5000009;28;20312;-56
2022/03/29 02:41:11;;;;;;;17.90;10.73;;;9.20;99.90;;;;;;4999944;28;20231;-57
2022/03/29 02:43:38;;;;;;;11.93;8.13;;;9.10;99.90;;;;;;5000096;28;20262;-57
2022/03/29 02:46:05;;;;;;;13.35;9.48;;;9.20;99.90;;;;;;4999558;28;20319;-55
2022/03/29 02:48:32;;;;;;;13.10;8.23;;;9.10;99.90;;;;;;4999936;28;20200;-50
2022/03/29 02:50:59;;;;;;;12.25;8.55;;;9.20;99.90;;;;;;4999640;28;20235;-51
2022/03/29 02:53:27;;;;;;;10.07;8.10;;;9.10;99.90;;;;;;4999886;28;20200;-51
2022/03/29 02:55:55;;;;;;;10.35;8.45;;;9.00;99.90;;;;;;4999720;28;20250;-56
2022/03/29 02:58:22;;;;;;;15.02;10.30;;;9.00;99.90;;;;;;4999912;28;20212;-52
2022/03/29 03:00:51;;;;;;;11.40;8.32;;;9.00;99.90;;;;;;4999830;28;20432;-49
2022/03/29 03:03:19;;;;;;;15.68;8.75;;;8.90;99.90;;;;;;5000099;28;20202;-57
2022/03/29 03:05:46;;;;;;;11.60;7.63;;;8.80;99.90;;;;;;4999850;28;20305;-51
2022/03/29 03:08:14;;;;;;;14.85;8.70;;;8.90;99.90;;;;;;5000083;28;20216;-56
2022/03/29 03:10:41;;;;;;;9.23;7.55;;;8.90;99.90;;;;;;4999447;28;20220;-52
2022/03/29 03:13:09;;;;;;;11.68;8.07;;;8.90;99.90;;;;;;5000263;28;20207;-56
2022/03/29 03:15:36;;;;;;;14.10;8.68;;;8.80;99.90;;;;;;5000482;28;20230;-53
2022/03/29 03:18:03;;;;;;;13.32;8.65;;;8.80;99.90;;;;;;5000511;28;20204;-55
2022/03/29 03:20:31;;;;;;;14.00;7.75;;;8.70;99.90;;;;;;5004262;28;20206;-56
2022/03/29 03:22:58;;;;;;;10.70;7.57;;;8.50;99.90;;;;;;5005107;28;20202;-56
2022/03/29 03:25:26;;;;;;;12.02;7.32;;;8.30;99.90;;;;;;5005048;28;20214;-56
2022/03/29 03:27:53;;;;;;;11.98;8.07;;;8.20;99.90;;;;;;5003619;28;20199;-57
2022/03/29 03:30:20;;;;;;;15.20;9.38;;;8.10;99.90;;;;;;5004819;28;20197;-53
2022/03/29 03:32:48;;;;;;;15.23;7.60;;;7.90;99.90;;;;;;5003992;28;20229;-54
2022/03/29 03:35:17;;;;;;;12.32;7.82;;;7.90;99.90;;;;;;5003837;28;20521;-57
2022/03/29 03:37:45;;;;;;;12.63;7.90;;;7.80;99.90;;;;;;5003296;28;20205;-56
2022/03/29 03:40:12;;;;;;;14.75;8.98;;;7.60;99.90;;;;;;5003921;28;20249;-51
2022/03/29 03:42:40;;;;;;;13.10;8.95;;;7.70;99.90;;;;;;5003523;28;20302;-52
2022/03/29 03:45:08;;;;;;;15.93;9.40;;;7.70;99.90;;;;;;5003313;28;20448;-55
2022/03/29 03:47:36;;;;;;;14.20;10.10;;;7.50;99.90;;;;;;5003270;28;20412;-53
2022/03/29 03:50:06;;;;;;;18.20;9.50;;;7.40;99.90;;;;;;5003304;28;20205;-55
2022/03/29 03:52:33;;;;;;;12.45;9.80;;;7.30;99.90;;;;;;5002857;28;20412;-53
2022/03/29 03:55:00;;;;;;;12.77;8.93;;;7.30;99.90;;;;;;5002949;28;20202;-54
2022/03/29 03:57:28;;;;;;;10.95;8.27;;;7.30;99.90;;;;;;5003068;28;20201;-53
2022/03/29 03:59:56;;;;;;;17.75;11.20;;;7.20;99.90;;;;;;5003051;28;20225;-53
2022/03/29 04:02:23;;;;;;;12.95;9.93;;;7.10;99.90;;;;;;5002650;28;20422;-55
2022/03/29 04:04:51;;;;;;;20.38;13.32;;;7.20;99.90;;;;;;5001991;28;20244;-54
2022/03/29 04:07:19;;;;;;;18.45;11.85;;;7.10;99.90;;;;;;5002966;28;20454;-54
2022/03/29 04:09:46;;;;;;;20.10;14.68;;;7.00;99.90;;;;;;5002271;28;20655;-55
2022/03/29 04:12:13;;;;;;;15.82;11.15;;;6.70;99.90;;;;;;5002319;28;20319;-52
2022/03/29 04:14:40;;;;;;;18.58;10.25;;;6.80;99.90;;;;;;5002534;28;20206;-56
2022/03/29 04:17:10;;;;;;;16.90;11.02;;;6.80;99.90;;;;;;5001686;28;20508;-54
2022/03/29 04:19:37;;;;;;;15.20;12.00;;;6.60;99.90;;;;;;5001997;28;20499;-53
2022/03/29 04:22:05;;;;;;;17.33;10.68;;;6.60;99.90;;;;;;5002222;28;20551;-54
2022/03/29 04:24:33;;;;;;;16.90;9.77;;;6.60;99.90;;;;;;5002409;28;20213;-55
2022/03/29 04:27:01;;;;;;;14.07;10.38;;;6.60;99.90;;;;;;5002377;28;20413;-50
2022/03/29 04:29:28;;;;;;;11.75;7.32;;;6.60;99.90;;;;;;5002654;28;20205;-52
2022/03/29 04:31:55;;;;;;;10.55;9.43;;;6.60;99.90;;;;;;5001406;28;20538;-57
2022/03/29 04:34:22;;;;;;;21.10;10.35;;;6.60;99.90;;;;;;5000705;28;20206;-52
2022/03/29 04:36:50;;;;;;;10.63;8.25;;;6.60;99.90;;;;;;4983162;28;20564;-53
2022/03/29 04:39:17;;;;;;;15.05;9.55;;;6.60;99.90;;;;;;4987509;28;20201;-55
2022/03/29 04:41:45;;;;;;;17.13;9.68;;;6.60;99.90;;;;;;4996028;28;20230;-55
2022/03/29 04:44:34;;;;;;;13.68;8.95;;;6.60;99.90;;;;;;4989675;28;20210;-54
2022/03/29 04:47:01;;;;;;;12.70;9.63;;;6.70;99.90;;;;;;4994198;28;20241;-54
2022/03/29 04:49:28;;;;;;;13.43;9.40;;;6.90;99.90;;;;;;5002619;28;20225;-53
2022/03/29 04:51:56;;;;;;;14.65;8.40;;;7.10;99.90;;;;;;4991411;28;20226;-52
2022/03/29 04:54:23;;;;;;;13.50;9.07;;;7.00;99.90;;;;;;4989271;28;20197;-56
2022/03/29 04:56:50;;;;;;;19.95;10.43;;;7.20;99.90;;;;;;5001548;28;20208;-58
2022/03/29 04:59:18;;;;;;;15.27;9.55;;;7.40;99.90;;;;;;5002565;28;20269;-56
2022/03/29 05:01:45;;;;;;;12.60;8.75;;;7.60;99.90;;;;;;5002154;28;20221;-56
2022/03/29 05:04:13;;;;;;;15.35;9.45;;;7.50;99.90;;;;;;5001358;28;20256;-52
2022/03/29 05:06:41;;;;;;;17.08;8.98;;;7.60;99.90;;;;;;5001777;28;20260;-54
2022/03/29 05:09:08;;;;;;;16.20;10.02;;;7.80;99.90;;;;;;5001384;28;20205;-55
2022/03/29 05:11:35;;;;;;;14.65;10.93;;;7.80;99.90;;;;;;5001143;28;20222;-53
2022/03/29 05:14:02;;;;;;;21.27;13.13;;;8.00;99.90;;;;;;5001400;28;20534;-56
2022/03/29 05:16:30;;;;;;;13.02;9.07;;;8.00;99.90;;;;;;5001998;28;20205;-55
2022/03/29 05:18:57;;;;;;;13.63;9.95;;;8.00;99.90;;;;;;5001582;28;20381;-54
2022/03/29 05:21:25;;;;;;;12.38;9.68;;;8.30;99.90;;;;;;5001260;28;20552;-55
2022/03/29 05:23:52;;;;;;;13.65;10.18;;;8.50;99.90;;;;;;5000929;28;20212;-55
2022/03/29 05:26:19;;;;;;;13.23;10.02;;;8.70;99.90;;;;;;5001366;28;20226;-58
2022/03/29 05:28:46;;;;;;;13.38;9.23;;;8.80;99.90;;;;;;5001307;28;20199;-56
2022/03/29 05:31:14;;;;;;;11.95;9.30;;;9.10;99.90;;;;;;5000832;28;20242;-56
2022/03/29 05:33:42;;;;;;;15.38;10.48;;;9.20;99.90;;;;;;4998390;28;20318;-52
2022/03/29 05:36:12;;;;;;;11.93;8.60;;;9.40;99.90;;;;;;4994750;28;20210;-55
2022/03/29 05:38:40;;;;;;;14.65;8.82;;;9.70;99.90;;;;;;4993443;28;20243;-50
2022/03/29 05:41:09;;;;;;;14.30;7.68;;;9.90;99.90;;;;;;4997194;28;20248;-56
2022/03/29 05:43:36;;;;;;;11.00;9.00;;;10.30;99.90;;;;;;4996811;28;20284;-55
2022/03/29 05:48:52;;;;;;;16.88;8.85;;;10.80;99.90;;;;;;5000677;28;20204;-52
2022/03/29 05:51:21;;;;;;;16.17;9.40;;;10.70;99.90;;;;;;5000920;28;20602;-53
2022/03/29 05:53:48;;;;;;;12.82;7.82;;;10.70;99.90;;;;;;5000757;28;20239;-52
2022/03/29 05:56:15;;;;;;;21.63;8.98;;;10.70;99.90;;;;;;5001272;28;20197;-55
2022/03/29 05:58:43;;;;;;;11.55;8.48;;;10.30;99.90;;;;;;5001255;28;20201;-53
2022/03/29 06:01:11;;;;;;;9.38;8.10;;;10.10;99.90;;;;;;5000779;28;20221;-55
2022/03/29 06:03:39;;;;;;;11.77;8.38;;;10.10;99.90;;;;;;5001510;28;20204;-53
2022/03/29 06:06:06;;;;;;;12.05;7.88;;;9.90;99.90;;;;;;5000612;28;20204;-56
2022/03/29 06:08:38;;;;;;;11.52;9.25;;;9.90;99.90;;;;;;5030763;28;20200;-55
2022/03/29 06:11:07;;;;;;;10.75;7.78;;;9.90;99.90;;;;;;4999618;28;20550;-55
2022/03/29 06:13:34;;;;;;;13.35;9.00;;;9.80;99.90;;;;;;4999431;28;20579;-54
2022/03/29 06:16:02;;;;;;;12.00;8.75;;;9.70;99.90;;;;;;4999462;28;20507;-52
2022/03/29 06:18:33;;;;;;;11.52;8.35;;;9.50;99.90;;;;;;5000555;28;20314;-54
2022/03/29 06:21:00;;;;;;;14.20;9.52;;;9.60;99.90;;;;;;5000030;28;20534;-57
2022/03/29 06:23:27;;;;;;;11.02;9.93;;;9.60;99.90;;;;;;5000199;28;20213;-57
2022/03/29 06:25:55;;;;;;;12.25;8.32;;;9.60;99.90;;;;;;4999822;28;20204;-51
2022/03/29 06:28:22;;;;;;;9.90;6.93;;;9.60;99.90;;;;;;5000279;28;20229;-55
2022/03/29 06:30:52;;;;;;;9.85;7.50;;;9.70;99.90;;;;;;4999815;28;20228;-54
2022/03/29 06:33:20;;;;;;;11.90;8.65;;;9.80;99.90;;;;;;5000311;28;20200;-53
2022/03/29 06:35:47;;;;;;;10.43;7.25;;;9.80;99.90;;;;;;5000016;28;20200;-54
2022/03/29 06:38:21;;;;;;;18.52;8.88;;;9.90;99.90;;;;;;4999648;28;20211;-54
2022/03/29 06:40:48;;;;;;;8.73;7.18;;;10.00;99.90;;;;;;5000179;28;20399;-56
2022/03/29 06:43:16;;;;;;;11.45;8.85;;;10.20;99.90;;;;;;4999498;28;20204;-51
2022/03/29 06:45:44;;;;;;;13.70;7.07;;;10.30;99.90;;;;;;5000132;28;20250;-54
2022/03/29 06:48:12;;;;;;;12.90;7.05;;;10.20;99.90;;;;;;4999909;28;20240;-54
2022/03/29 06:50:39;;;;;;;7.90;6.93;;;10.20;99.90;;;;;;4999805;28;20448;-56
2022/03/29 06:53:06;;;;;;;17.65;9.77;;;10.20;99.90;;;;;;4999713;28;20224;-56
2022/03/29 06:55:35;;;;;;;10.77;6.97;;;10.20;99.90;;;;;;5000081;28;20200;-53
2022/03/29 06:58:03;;;;;;;10.75;7.63;;;10.20;99.90;;;;;;5000242;28;20437;-52
2022/03/29 07:00:30;;;;;;;10.88;6.47;;;10.30;99.90;;;;;;5000271;28;20216;-57
2022/03/29 07:02:57;;;;;;;20.20;8.43;;;10.40;99.90;;;;;;4999878;28;20345;-57
2022/03/29 07:05:25;;;;;;;9.77;7.28;;;10.50;99.90;;;;;;5001144;28;20204;-56
2022/03/29 07:07:52;;;;;;;9.00;6.28;;;10.80;99.90;;;;;;4999445;28;20223;-55
2022/03/29 07:13:06;;;;;;;15.35;7.63;;;10.60;99.90;;;;;;4998026;28;20215;-52
2022/03/29 07:15:33;;;;;;;14.40;7.15;;;10.70;99.90;;;;;;4998432;28;20207;-56
2022/03/29 07:18:01;;;;;;;12.57;8.68;;;10.60;99.90;;;;;;4999277;28;20251;-53
2022/03/29 07:20:29;;;;;;;15.40;7.63;;;10.70;99.90;;;;;;4999566;28;20310;-53
2022/03/29 07:22:56;;;;;;;12.38;8.55;;;10.60;99.90;;;;;;4997793;28;20297;-53
2022/03/29 07:25:27;;;;;;;15.45;11.18;;;10.80;99.90;;;;;;4995173;28;20200;-54
2022/03/29 07:27:54;;;;;;;14.32;9.65;;;10.70;99.90;;;;;;4999973;28;20483;-54
2022/03/29 07:30:22;;;;;;;12.40;8.23;;;10.60;99.90;;;;;;5012252;28;20431;-53
2022/03/29 07:32:54;;;;;;;16.00;8.95;;;10.60;99.90;;;;;;5003907;28;20551;-50
2022/03/29 07:35:24;;;;;;;14.75;9.73;;;10.50;99.90;;;;;;4999056;28;20274;-57
2022/03/29 07:37:52;;;;;;;19.70;13.35;;;10.30;99.90;;;;;;4999185;28;20214;-52
2022/03/29 07:40:24;;;;;;;26.60;13.77;;;10.20;99.90;;;;;;4999015;28;20212;-56
2022/03/29 07:42:52;;;;;;;24.38;13.88;;;10.10;99.90;;;;;;4999426;28;20229;-54
2022/03/29 07:45:20;;;;;;;24.73;16.00;;;10.10;99.90;;;;;;4999070;28;20349;-55
2022/03/29 07:47:51;;;;;;;25.77;15.23;;;10.30;99.90;;;;;;4999081;28;20228;-51
2022/03/29 07:50:40;;;;;;;19.23;13.05;;;10.60;99.90;;;;;;4998794;28;20503;-55
2022/03/29 07:53:07;;;;;;;35.13;17.20;;;11.40;99.90;;;;;;4999265;28;20208;-53
2022/03/29 07:55:39;;;;;;;21.02;13.05;;;12.20;99.90;;;;;;4999278;28;20350;-56
2022/03/29 07:58:13;;;;;;;23.00;13.98;;;12.90;99.90;;;;;;4999653;28;20193;-56
2022/03/29 08:00:40;;;;;;;18.52;12.20;;;13.30;99.90;;;;;;4999291;28;20361;-53
2022/03/29 08:03:15;;;;;;;19.77;13.05;;;13.40;99.90;;;;;;4998818;28;20490;-55
2022/03/29 08:05:44;;;;;;;20.70;15.05;;;13.40;99.90;;;;;;4999969;28;20206;-54
2022/03/29 08:08:16;;;;;;;21.75;14.82;;;12.80;99.90;;;;;;5002548;28;20228;-51
2022/03/29 08:10:45;;;;;;;19.73;14.35;;;12.50;99.90;;;;;;5002484;28;20206;-52
2022/03/29 08:13:12;;;;;;;24.83;14.07;;;12.40;99.90;;;;;;5002331;28;20267;-57
2022/03/29 08:15:41;;;;;;;22.40;12.35;;;12.50;99.90;;;;;;5002682;28;20202;-54
2022/03/29 08:18:08;;;;;;;17.10;12.95;;;12.60;99.90;;;;;;5002151;28;20205;-55
2022/03/29 08:20:37;;;;;;;23.63;12.20;;;12.80;99.90;;;;;;5002104;28;20307;-56
2022/03/29 08:23:06;;;;;;;18.20;12.95;;;12.80;99.90;;;;;;5002137;28;20202;-52
2022/03/29 08:25:36;;;;;;;23.88;14.98;;;12.50;99.90;;;;;;5002120;28;20263;-55
2022/03/29 08:28:06;;;;;;;15.30;11.77;;;12.40;99.90;;;;;;5002073;28;20231;-54
2022/03/29 08:30:34;;;;;;;19.63;13.90;;;12.60;99.90;;;;;;5002377;28;20451;-55
2022/03/29 08:33:03;;;;;;;22.17;13.95;;;12.60;99.90;;;;;;5002100;28;20197;-57
2022/03/29 08:35:31;;;;;;;20.80;13.45;;;12.30;99.90;;;;;;5002136;28;20361;-51
2022/03/29 08:37:59;;;;;;;19.48;12.95;;;12.40;99.90;;;;;;5001925;28;20208;-54
2022/03/29 08:40:47;;;;;;;19.02;13.63;;;12.60;99.90;;;;;;5001971;28;20275;-57
2022/03/29 08:43:15;;;;;;;25.17;16.05;;;12.70;99.90;;;;;;5001993;28;20205;-55
2022/03/29 08:45:47;;;;;;;21.60;14.20;;;12.60;99.90;;;;;;5002119;28;20374;-57
2022/03/29 08:48:16;;;;;;;21.08;14.00;;;12.40;99.90;;;;;;5001102;28;20263;-53
2022/03/29 08:50:45;;;;;;;14.80;12.00;;;12.50;99.90;;;;;;5001659;28;20204;-53
2022/03/29 08:53:17;;;;;;;17.77;11.45;;;12.70;99.90;;;;;;5001891;28;20827;-49
2022/03/29 08:55:45;;;;;;;18.70;13.02;;;12.60;99.90;;;;;;5002117;28;20198;-55
2022/03/29 08:58:13;;;;;;;20.50;13.50;;;12.60;99.90;;;;;;5001136;28;20201;-52
2022/03/29 09:00:46;;;;;;;16.73;12.70;;;13.30;99.90;;;;;;5001930;28;20202;-54
2022/03/29 09:03:16;;;;;;;23.77;15.93;;;14.20;99.90;;;;;;5001846;28;20208;-55
2022/03/29 09:05:44;;;;;;;18.40;14.95;;;14.50;99.90;;;;;;5001684;28;20400;-56
2022/03/29 09:08:13;;;;;;;24.45;13.45;;;14.60;99.90;;;;;;5001680;28;20229;-54
2022/03/29 09:10:49;;;;;;;18.98;13.55;;;14.30;99.90;;;;;;4995307;28;20201;-50
2022/03/29 09:13:20;;;;;;;18.02;14.77;;;14.30;99.90;;;;;;4993915;28;20205;-55
2022/03/29 09:15:50;;;;;;;21.10;15.43;;;14.50;99.90;;;;;;5001586;28;20207;-57
2022/03/29 09:18:18;;;;;;;23.27;15.30;;;14.30;99.90;;;;;;5000550;28;20203;-54
2022/03/29 09:21:05;;;;;;;20.10;13.45;;;13.90;99.90;;;;;;5001473;28;20261;-56
2022/03/29 09:23:37;;;;;;;24.88;14.98;;;14.00;99.90;;;;;;5001399;28;20265;-56
2022/03/29 09:26:28;;;;;;;22.95;15.88;;;13.80;99.90;;;;;;5001029;28;20256;-57
2022/03/29 09:28:56;;;;;;;18.95;14.15;;;14.00;99.90;;;;;;5001413;28;20237;-56
2022/03/29 09:31:25;;;;;;;22.80;14.98;;;13.80;99.90;;;;;;5001147;28;20229;-53
2022/03/29 09:34:13;;;;;;;22.90;15.18;;;13.40;99.90;;;;;;5001368;28;20205;-54
2022/03/29 09:36:45;;;;;;;20.20;13.65;;;12.90;99.90;;;;;;5001214;28;20202;-55
2022/03/29 09:39:49;;;;;;;21.90;15.73;;;13.50;99.90;;;;;;5001009;28;20201;-53
2022/03/29 09:42:17;;;;;;;23.13;17.42;;;13.80;99.90;;;;;;4960075;29;20463;-53
2022/03/29 09:44:51;;;;;;;22.00;15.15;;;13.70;99.90;;;;;;4994007;28;20201;-53
2022/03/29 09:47:22;;;;;;;21.17;14.77;;;13.60;99.90;;;;;;5000756;28;20546;-51
2022/03/29 09:49:55;;;;;;;21.95;14.75;;;13.50;99.90;;;;;;5000683;28;20237;-59
2022/03/29 09:52:29;;;;;;;23.30;15.23;;;13.10;99.90;;;;;;5000783;28;20555;-51
2022/03/29 09:55:26;;;;;;;22.73;15.82;;;13.00;99.90;;;;;;5000725;28;20220;-53
2022/03/29 09:58:00;;;;;;;22.55;15.55;;;13.40;99.90;;;;;;4992725;28;20431;-54
2022/03/29 10:00:32;;;;;;;17.10;13.30;;;13.70;99.90;;;;;;4995595;28;20431;-54
2022/03/29 10:03:02;;;;;;;20.42;15.75;;;14.40;99.90;;;;;;4998572;28;20299;-54
2022/03/29 10:05:31;;;;;;;19.85;14.80;;;14.90;99.90;;;;;;5000420;28;20206;-54
2022/03/29 10:10:50;;;;;;;23.02;15.23;;;15.00;99.90;;;;;;5000018;28;20199;-55
2022/03/29 10:13:28;;;;;;;16.90;13.07;;;14.70;99.90;;;;;;5000299;28;20429;-55
2022/03/29 10:15:56;;;;;;;20.23;14.40;;;14.50;99.90;;;;;;5000434;28;20202;-55
2022/03/29 10:18:28;;;;;;;18.83;15.55;;;14.40;99.90;;;;;;5000816;28;20202;-58
2022/03/29 10:21:01;;;;;;;29.80;15.48;;;14.00;99.90;;;;;;5000130;28;20230;-55
2022/03/29 10:23:36;;;;;;;23.95;15.98;;;14.10;99.90;;;;;;5000156;28;20201;-55
2022/03/29 10:26:04;;;;;;;24.17;16.20;;;13.90;99.90;;;;;;4999936;28;20202;-54
2022/03/29 10:28:32;;;;;;;21.38;15.48;;;14.00;99.90;;;;;;4999782;28;20460;-51
2022/03/29 10:30:59;;;;;;;18.60;14.38;;;14.10;99.90;;;;;;5000404;28;20336;-54
2022/03/29 10:33:30;;;;;;;22.95;16.13;;;14.30;99.90;;;;;;4999988;28;20205;-53
2022/03/29 10:35:59;;;;;;;24.48;16.60;;;14.50;99.90;;;;;;4999971;28;20312;-57
2022/03/29 10:38:47;;;;;;;32.58;17.17;;;14.40;99.90;;;;;;5000045;28;20216;-57
2022/03/29 10:41:30;;;;;;;22.63;15.57;;;14.10;99.90;;;;;;4999549;28;20225;-50
2022/03/29 10:44:10;;;;;;;20.70;14.73;;;13.90;99.90;;;;;;5000111;28;20442;-54
2022/03/29 10:46:39;;;;;;;19.98;15.45;;;13.60;99.90;;;;;;4999933;28;20436;-55
2022/03/29 10:49:16;;;;;;;23.85;16.13;;;13.20;99.90;;;;;;5000263;28;20240;-53
2022/03/29 10:51:44;;;;;;;18.17;12.63;;;13.10;99.90;;;;;;4999562;28;20234;-56
2022/03/29 10:54:29;;;;;;;21.05;12.65;;;13.40;99.90;;;;;;4999618;28;20268;-57
2022/03/29 10:57:06;;;;;;;19.00;13.63;;;13.60;99.90;;;;;;4999653;28;20265;-55
2022/03/29 10:59:36;;;;;;;19.98;12.98;;;13.70;99.90;;;;;;5000048;28;20205;-54
2022/03/29 11:02:09;;;;;;;14.77;12.20;;;13.80;99.90;;;;;;4999607;28;20319;-58
2022/03/29 11:04:57;;;;;;;13.88;11.98;;;13.60;99.90;;;;;;5000297;28;20235;-54
2022/03/29 11:07:24;;;;;;;21.10;12.23;;;13.90;99.90;;;;;;4999437;28;20201;-56
2022/03/29 11:10:32;;;;;;;19.17;12.85;;;14.10;99.90;;;;;;4999804;28;20324;-54
2022/03/29 11:13:02;;;;;;;15.52;12.07;;;14.00;99.90;;;;;;4994873;28;20236;-54
2022/03/29 11:15:37;;;;;;;18.23;12.25;;;13.80;99.90;;;;;;4999455;28;20229;-55
2022/03/29 11:18:31;;;;;;;18.05;11.80;;;13.60;99.90;;;;;;4999164;28;20219;-57
2022/03/29 11:21:03;;;;;;;15.45;11.75;;;13.70;99.90;;;;;;4999702;28;20497;-52
2022/03/29 11:23:37;;;;;;;14.38;10.60;;;13.70;99.90;;;;;;4999868;28;20209;-57
2022/03/29 11:26:12;;;;;;;20.25;10.88;;;13.60;99.90;;;;;;4999041;28;20206;-57
2022/03/29 11:28:49;;;;;;;14.57;11.15;;;13.70;99.90;;;;;;4999348;28;20313;-56
2022/03/29 11:31:21;;;;;;;15.18;12.15;;;13.90;99.90;;;;;;4999249;28;20726;-58
2022/03/29 11:33:49;;;;;;;18.33;12.52;;;14.10;99.90;;;;;;4999894;28;20249;-56
2022/03/29 11:36:20;;;;;;;21.92;11.88;;;14.00;99.90;;;;;;4999555;28;20198;-57
2022/03/29 11:38:50;;;;;;;16.10;12.10;;;14.30;99.90;;;;;;4999381;28;20383;-53
2022/03/29 11:41:27;;;;;;;20.23;12.60;;;14.40;99.90;;;;;;5000439;28;20602;-54
2022/03/29 11:44:00;;;;;;;18.45;12.30;;;14.30;99.90;;;;;;5003495;28;20202;-51
2022/03/29 11:46:53;;;;;;;17.40;12.82;;;14.00;99.90;;;;;;5003663;28;20201;-56
2022/03/29 11:49:26;;;;;;;17.58;13.35;;;14.00;99.90;;;;;;5003460;28;20289;-55
2022/03/29 11:52:13;;;;;;;15.57;12.00;;;13.50;99.90;;;;;;5002342;28;20288;-54
2022/03/29 11:54:51;;;;;;;16.23;12.07;;;13.40;99.90;;;;;;5003490;28;20212;-54
2022/03/29 11:57:24;;;;;;;17.08;12.57;;;13.20;99.90;;;;;;5003466;28;20265;-50
2022/03/29 12:00:01;;;;;;;16.98;12.48;;;13.20;99.90;;;;;;5002698;28;20241;-49
2022/03/29 12:02:29;;;;;;;20.83;12.88;;;13.00;99.90;;;;;;5003027;28;20465;-55
2022/03/29 12:04:57;;;;;;;16.83;12.40;;;13.10;99.90;;;;;;5002465;28;20212;-55
2022/03/29 12:07:38;;;;;;;19.38;13.20;;;12.80;99.90;;;;;;5002716;28;20202;-56
2022/03/29 12:10:06;;;;;;;15.35;11.98;;;12.40;99.90;;;;;;5002066;28;20280;-56
2022/03/29 12:12:33;;;;;;;20.30;13.02;;;12.60;99.90;;;;;;5002592;28;20288;-52
2022/03/29 12:15:06;;;;;;;16.00;12.05;;;12.70;99.90;;;;;;5002150;28;20220;-53
2022/03/29 12:17:39;;;;;;;20.02;13.95;;;12.70;99.90;;;;;;5002267;28;20210;-51
2022/03/29 12:20:07;;;;;;;19.25;13.32;;;12.50;99.90;;;;;;5002010;28;20206;-55
2022/03/29 12:22:35;;;;;;;15.23;12.77;;;12.50;99.90;;;;;;5002237;28;20225;-53
2022/03/29 12:25:03;;;;;;;17.90;12.45;;;12.60;99.90;;;;;;5002107;28;20205;-54
2022/03/29 12:27:30;;;;;;;16.52;11.48;;;12.60;99.90;;;;;;5002446;28;20198;-49
2022/03/29 12:30:01;;;;;;;13.75;10.48;;;12.80;99.90;;;;;;5002133;28;20225;-55
2022/03/29 12:32:29;;;;;;;17.38;11.95;;;12.90;99.90;;;;;;5002390;28;20292;-54
2022/03/29 12:35:03;;;;;;;17.88;13.52;;;13.00;99.90;;;;;;5001747;28;20205;-54
2022/03/29 12:37:31;;;;;;;17.52;12.75;;;13.00;99.90;;;;;;5001394;28;20204;-56
2022/03/29 12:40:05;;;;;;;13.85;10.65;;;13.30;99.90;;;;;;5002136;28;20432;-57
2022/03/29 12:42:33;;;;;;;19.85;13.40;;;13.20;99.90;;;;;;5001849;28;20241;-53
2022/03/29 12:45:03;;;;;;;14.30;10.77;;;13.30;99.90;;;;;;5002343;28;20263;-53
2022/03/29 12:47:31;;;;;;;16.98;11.57;;;13.00;99.90;;;;;;5002152;28;20374;-55
2022/03/29 12:50:00;;;;;;;16.08;11.93;;;13.00;99.90;;;;;;5001584;28;20253;-53
2022/03/29 12:52:27;;;;;;;17.67;12.63;;;12.90;99.90;;;;;;5001349;28;20305;-54
2022/03/29 12:54:58;;;;;;;19.48;13.02;;;13.00;99.90;;;;;;5001953;28;20252;-55
2022/03/29 12:57:41;;;;;;;16.27;12.15;;;12.80;99.90;;;;;;5002228;28;20209;-54
2022/03/29 13:00:18;;;;;;;16.13;12.43;;;12.80;99.90;;;;;;5001645;28;20296;-54